Time;durP1;ratioP1;P1;durP2;ratioP2;P2;SDS_P1;SDS_P2;PMS_P1;PMS_P2;Temp;Humidity;BMP_temperature;BMP_pressure;BME280_temperature;BME280_humidity;BME280_pressure;Samples;Min_cycle;Max_cycle;Signal;HPM_P1;HPM_P2
2022/01/29 00:00:07;;;;;;;5.10;2.40;;;;;;;0.63;89.49;98475.29;109196;1276;22531;-65
2022/01/29 00:02:39;;;;;;;4.50;1.90;;;;;;;0.63;89.60;98479.71;109282;1276;22594;-65
2022/01/29 00:05:07;;;;;;;2.20;1.40;;;;;;;0.61;89.55;98486.15;109158;1276;138399;-65
2022/01/29 00:07:33;;;;;;;7.00;2.30;;;;;;;0.60;89.55;98482.04;109241;1275;22490;-65
2022/01/29 00:10:04;;;;;;;4.40;2.20;;;;;;;0.59;89.48;98488.27;109095;1276;138719;-64
2022/01/29 00:12:31;;;;;;;4.00;1.80;;;;;;;0.59;89.62;98486.56;109207;1275;22538;-65
2022/01/29 00:14:58;;;;;;;4.20;1.90;;;;;;;0.60;89.66;98489.86;109132;1276;139691;-65
2022/01/29 02:39:47;;;;;;;1.80;1.00;;;;;;;0.16;91.32;98638.30;106335;1306;23644;-58
2022/01/29 02:42:13;;;;;;;1.70;0.80;;;;;;;0.16;91.17;98646.04;108436;1284;23497;-58
2022/01/29 02:44:40;;;;;;;1.70;0.90;;;;;;;0.15;90.95;98650.78;108318;1284;138350;-58
2022/01/29 02:47:27;;;;;;;0.60;0.60;;;;;;;0.13;91.05;98651.77;108465;1284;22499;-58
2022/01/29 02:49:53;;;;;;;2.70;0.80;;;;;;;0.13;91.20;98658.27;108291;1284;137730;-58
2022/01/29 02:52:20;;;;;;;0.80;0.80;;;;;;;0.12;91.11;98659.06;108301;1284;22537;-58
2022/01/29 02:54:47;;;;;;;2.10;0.90;;;;;;;0.13;90.87;98662.31;108404;1284;23734;-58
2022/01/29 02:57:14;;;;;;;1.60;0.80;;;;;;;0.13;90.98;98668.73;108316;1284;138680;-57
2022/01/29 02:59:41;;;;;;;1.70;1.20;;;;;;;0.14;90.98;98667.79;108324;1285;22527;-58
2022/01/29 03:02:07;;;;;;;3.00;0.90;;;;;;;0.12;91.22;98672.86;108349;1285;137957;-58
2022/01/29 03:04:34;;;;;;;2.00;0.90;;;;;;;0.11;91.17;98675.45;108381;1285;22572;-58
2022/01/29 03:07:02;;;;;;;1.30;0.90;;;;;;;0.11;91.51;98681.02;108298;1285;138959;-58
2022/01/29 03:09:29;;;;;;;1.20;0.90;;;;;;;0.10;91.29;98684.06;108414;1285;22502;-58
2022/01/29 03:11:56;;;;;;;1.70;0.60;;;;;;;0.09;90.91;98685.92;108354;1285;22480;-57
2022/01/29 03:14:22;;;;;;;1.20;0.80;;;;;;;0.09;90.85;98690.70;109005;1277;138173;-57
2022/01/29 03:16:49;;;;;;;1.30;0.80;;;;;;;0.11;90.95;98688.94;109107;1277;22487;-58
2022/01/29 03:19:16;;;;;;;;;;;;;;;0.11;90.52;98696.55;108987;1277;137800;-58
2022/01/29 03:21:42;;;;;;;1.20;0.90;;;;;;;0.12;90.70;98701.41;108918;1279;22727;-58
2022/01/29 03:24:09;;;;;;;2.00;1.10;;;;;;;0.12;90.60;98702.69;108927;1279;22478;-58
2022/01/29 03:26:36;;;;;;;1.60;0.90;;;;;;;0.11;90.81;98705.04;108836;1279;137533;-58
2022/01/29 03:29:03;;;;;;;;;;;;;;;0.13;91.16;98713.80;108958;1279;22538;-57
2022/01/29 03:31:30;;;;;;;1.90;1.10;;;;;;;0.13;90.74;98712.70;108810;1279;125142;-58
2022/01/29 03:33:57;;;;;;;1.10;1.00;;;;;;;0.12;90.73;98720.81;108953;1278;23533;-58
2022/01/29 03:36:23;;;;;;;0.80;0.70;;;;;;;0.13;90.66;98724.23;108878;1279;22492;-57
2022/01/29 03:38:50;;;;;;;1.20;1.20;;;;;;;0.13;90.63;98729.55;108973;1277;137393;-58
2022/01/29 03:41:17;;;;;;;1.50;0.80;;;;;;;0.09;91.21;98734.54;109069;1277;22587;-57
2022/01/29 03:43:47;;;;;;;1.10;0.90;;;;;;;0.06;91.70;98738.13;108977;1277;137775;-57
2022/01/29 03:46:14;;;;;;;2.40;1.10;;;;;;;0.06;91.65;98742.08;109113;1277;22433;-57
2022/01/29 03:48:42;;;;;;;1.30;1.00;;;;;;;0.05;91.45;98749.91;109064;1277;23276;-58
2022/01/29 03:51:08;;;;;;;0.90;0.90;;;;;;;0.05;91.11;98752.14;109003;1277;137256;-57
2022/01/29 03:53:35;;;;;;;;;;;;;;;0.06;91.44;98752.05;109161;1277;23792;-57
2022/01/29 03:56:01;;;;;;;2.00;1.10;;;;;;;0.06;91.43;98754.94;108909;1277;125237;-58
2022/01/29 03:58:28;;;;;;;1.40;0.90;;;;;;;0.06;91.61;98757.41;109056;1277;22480;-57
2022/01/29 04:00:55;;;;;;;0.50;0.50;;;;;;;0.06;91.25;98761.45;108820;1279;139016;-58
2022/01/29 04:03:21;;;;;;;0.80;0.80;;;;;;;0.06;91.18;98764.33;108948;1279;22471;-57
2022/01/29 04:05:48;;;;;;;0.80;0.70;;;;;;;0.07;91.07;98765.36;108999;1277;22492;-58
2022/01/29 04:08:17;;;;;;;1.50;1.20;;;;;;;0.07;90.78;98770.84;108883;1278;137259;-57
2022/01/29 04:10:44;;;;;;;1.50;1.00;;;;;;;0.04;90.24;98772.79;109018;1277;23706;-57
2022/01/29 04:13:13;;;;;;;1.60;1.10;;;;;;;0.09;90.10;98780.73;108858;1278;138390;-58
2022/01/29 04:15:40;;;;;;;2.00;0.90;;;;;;;0.09;89.85;98783.04;109011;1277;22578;-58
2022/01/29 04:18:06;;;;;;;3.10;1.80;;;;;;;0.08;89.67;98783.20;108990;1277;22577;-57
2022/01/29 04:20:33;;;;;;;1.80;1.00;;;;;;;0.12;89.30;98790.91;108841;1277;139174;-57
2022/01/29 04:23:00;;;;;;;1.90;1.00;;;;;;;0.11;89.21;98796.10;108935;1279;23359;-57
2022/01/29 04:25:27;;;;;;;1.10;0.90;;;;;;;0.10;89.52;98802.20;108900;1279;137845;-57
2022/01/29 04:27:55;;;;;;;0.90;0.80;;;;;;;0.09;89.94;98804.02;109006;1278;22480;-57
2022/01/29 04:30:28;;;;;;;2.60;1.50;;;;;;;0.09;89.38;98809.70;108996;1277;22666;-57
2022/01/29 04:33:00;;;;;;;2.90;1.10;;;;;;;0.09;89.73;98812.83;108909;1278;137804;-57
2022/01/29 04:35:27;;;;;;;2.00;1.60;;;;;;;0.10;89.30;98818.80;109024;1277;22656;-58
2022/01/29 04:37:54;;;;;;;;;;;;;;;0.10;89.38;98824.86;108888;1278;138059;-57
2022/01/29 04:40:20;;;;;;;1.50;0.80;;;;;;;0.11;89.44;98822.80;108989;1278;22482;-58
2022/01/29 04:42:47;;;;;;;2.10;1.10;;;;;;;0.11;89.07;98827.90;109009;1278;22485;-58
2022/01/29 04:45:14;;;;;;;;;;;;;;;0.13;89.17;98833.80;108894;1278;138149;-57
2022/01/29 04:47:40;;;;;;;2.40;0.90;;;;;;;0.13;88.54;98831.13;109034;1277;22449;-57
2022/01/29 04:50:07;;;;;;;1.60;1.00;;;;;;;0.12;88.61;98834.59;108916;1278;138426;-57
2022/01/29 04:52:33;;;;;;;;;;;;;;;0.14;88.59;98836.52;108998;1278;22501;-57
2022/01/29 04:55:00;;;;;;;1.70;1.00;;;;;;;0.14;88.43;98842.00;108904;1277;124821;-58
2022/01/29 04:57:27;;;;;;;2.70;1.70;;;;;;;0.14;88.47;98842.82;108988;1278;22491;-58
2022/01/29 04:59:53;;;;;;;1.30;1.10;;;;;;;0.15;88.26;98846.31;108989;1278;22316;-57
2022/01/29 05:02:20;;;;;;;1.60;1.20;;;;;;;0.14;88.41;98849.45;108919;1277;138151;-56
2022/01/29 05:04:47;;;;;;;4.10;1.80;;;;;;;0.11;88.13;98852.18;108977;1277;22469;-56
2022/01/29 05:07:13;;;;;;;2.20;1.20;;;;;;;0.09;88.21;98852.34;108903;1278;138370;-57
2022/01/29 05:09:40;;;;;;;1.80;1.10;;;;;;;0.08;88.23;98851.55;109019;1278;23569;-56
2022/01/29 05:12:07;;;;;;;2.10;1.50;;;;;;;0.05;88.45;98852.55;109004;1277;22516;-59
2022/01/29 05:15:08;;;;;;;2.90;2.10;;;;;;;0.06;88.29;98855.42;108859;1278;138744;-57
2022/01/29 05:28:08;;;;;;;2.50;1.30;;;;;;;-0.01;88.76;98869.36;109035;1277;22548;-57
2022/01/29 05:30:35;;;;;;;1.60;1.20;;;;;;;-0.03;89.05;98877.32;108967;1277;22626;-57
2022/01/29 05:33:01;;;;;;;2.90;1.40;;;;;;;-0.05;89.23;98877.89;108905;1278;139045;-57
2022/01/29 05:35:28;;;;;;;2.10;1.20;;;;;;;-0.07;89.90;98889.63;109037;1277;22479;-57
2022/01/29 05:37:55;;;;;;;2.00;1.20;;;;;;;-0.12;90.65;98892.16;108828;1277;138237;-58
2022/01/29 05:40:22;;;;;;;2.60;1.40;;;;;;;-0.16;91.08;98904.39;106608;1277;25064;-57
2022/01/29 05:42:49;;;;;;;2.60;1.50;;;;;;;-0.18;92.14;98909.10;104464;1280;22576;-57
2022/01/29 05:45:15;;;;;;;1.30;1.00;;;;;;;-0.22;93.07;98919.52;104323;1280;137539;-57
2022/01/29 05:47:42;;;;;;;2.70;1.10;;;;;;;-0.32;93.27;98913.34;104427;1280;25221;-57
2022/01/29 05:50:09;;;;;;;;;;;;;;;-0.30;93.83;98923.42;104452;1281;137943;-56
2022/01/29 05:52:35;;;;;;;2.30;1.30;;;;;;;-0.31;94.11;98929.97;104501;1278;25163;-57
2022/01/29 05:55:04;;;;;;;4.80;2.10;;;;;;;-0.33;94.25;98936.50;108889;1277;138673;-57
2022/01/29 05:57:30;;;;;;;2.20;1.70;;;;;;;-0.34;94.22;98944.48;108981;1278;22489;-57
2022/01/29 05:59:57;;;;;;;2.50;1.70;;;;;;;-0.37;94.09;98949.79;109009;1277;22478;-57
2022/01/29 06:02:24;;;;;;;2.80;1.90;;;;;;;-0.40;94.25;98949.65;108841;1277;137920;-58
2022/01/29 06:04:51;;;;;;;1.60;1.00;;;;;;;-0.38;93.91;98955.33;108963;1278;22703;-57
2022/01/29 06:07:17;;;;;;;2.90;1.90;;;;;;;-0.37;94.30;98957.89;108895;1277;138618;-57
2022/01/29 06:09:45;;;;;;;;;;;;;;;-0.36;94.05;98961.69;109005;1277;22613;-57
2022/01/29 06:12:12;;;;;;;2.50;1.60;;;;;;;-0.36;94.12;98963.41;108963;1277;22533;-58
2022/01/29 06:14:40;;;;;;;3.00;1.40;;;;;;;-0.34;94.03;98971.83;108946;1277;138389;-58
2022/01/29 06:17:06;;;;;;;1.80;1.10;;;;;;;-0.37;93.94;98968.40;109031;1277;24142;-58
2022/01/29 06:19:34;;;;;;;2.60;1.10;;;;;;;-0.33;93.91;98979.03;108976;1277;139525;-58
2022/01/29 06:22:06;;;;;;;1.70;1.30;;;;;;;-0.31;93.78;98977.89;109126;1277;22464;-57
2022/01/29 06:24:33;;;;;;;2.80;1.50;;;;;;;-0.30;93.30;98983.95;109080;1277;23564;-57
2022/01/29 06:26:59;;;;;;;2.20;1.50;;;;;;;-0.33;93.24;98982.48;108939;1277;138903;-57
2022/01/29 06:29:38;;;;;;;1.90;1.50;;;;;;;-0.30;93.09;98986.09;109365;1274;22602;-57
2022/01/29 06:32:05;;;;;;;3.70;1.70;;;;;;;-0.29;93.08;98992.34;109239;1274;138228;-57
2022/01/29 06:34:32;;;;;;;2.10;1.40;;;;;;;-0.28;93.31;98996.52;109330;1274;23612;-57
2022/01/29 06:36:58;;;;;;;2.60;1.40;;;;;;;-0.27;93.04;99001.69;109257;1274;139661;-57
2022/01/29 06:39:25;;;;;;;4.00;1.90;;;;;;;-0.27;92.99;99002.55;109303;1274;22503;-56
2022/01/29 06:41:52;;;;;;;3.60;2.40;;;;;;;-0.27;92.48;99003.13;109330;1274;22520;-56
2022/01/29 06:44:18;;;;;;;2.40;1.30;;;;;;;-0.27;92.19;99004.20;109269;1274;138038;-57
2022/01/29 06:46:45;;;;;;;4.50;1.50;;;;;;;-0.27;91.70;99008.14;109232;1274;22518;-55
2022/01/29 06:49:12;;;;;;;2.90;1.20;;;;;;;-0.27;91.37;99011.73;109216;1274;139357;-56
2022/01/29 06:51:38;;;;;;;2.60;1.60;;;;;;;-0.27;91.12;99012.60;109324;1273;22467;-57
2022/01/29 06:54:05;;;;;;;3.30;1.30;;;;;;;-0.27;90.74;99022.60;109342;1274;22475;-57
2022/01/29 06:56:31;;;;;;;3.00;1.20;;;;;;;-0.31;90.83;99015.67;109208;1273;138981;-56
2022/01/29 06:58:58;;;;;;;1.80;1.30;;;;;;;-0.25;90.77;99027.30;109298;1274;22583;-57
2022/01/29 07:01:40;;;;;;;2.00;1.70;;;;;;;-0.22;90.56;99024.81;109103;1274;138716;-57
2022/01/29 07:04:07;;;;;;;1.80;1.30;;;;;;;-0.21;90.54;99032.60;109322;1274;24667;-57
2022/01/29 07:06:35;;;;;;;1.80;1.30;;;;;;;-0.22;90.36;99033.51;109252;1274;22510;-57
2022/01/29 07:09:03;;;;;;;2.70;1.30;;;;;;;-0.23;90.07;99034.93;109213;1274;138887;-57
2022/01/29 07:11:29;;;;;;;2.00;1.20;;;;;;;-0.24;90.01;99034.69;109336;1274;23295;-56
2022/01/29 07:14:03;;;;;;;1.90;1.10;;;;;;;-0.26;89.60;99033.90;109247;1274;138182;-57
2022/01/29 07:16:32;;;;;;;1.70;1.30;;;;;;;-0.25;89.40;99042.50;109315;1273;22991;-56
2022/01/29 07:18:59;;;;;;;2.40;1.40;;;;;;;-0.25;89.40;99045.55;109228;1274;138408;-57
2022/01/29 07:21:25;;;;;;;2.00;1.40;;;;;;;-0.24;89.46;99051.28;109284;1274;22390;-58
2022/01/29 07:23:52;;;;;;;2.20;1.60;;;;;;;-0.23;89.34;99051.90;109330;1274;22261;-57
2022/01/29 07:26:18;;;;;;;2.70;1.50;;;;;;;-0.23;89.31;99056.31;109232;1274;139269;-57
2022/01/29 07:28:45;;;;;;;2.10;1.30;;;;;;;-0.25;89.25;99058.36;109273;1274;22498;-56
2022/01/29 07:31:11;;;;;;;3.80;1.80;;;;;;;-0.28;88.89;99058.92;109267;1274;138789;-57
2022/01/29 07:33:38;;;;;;;3.10;1.70;;;;;;;-0.31;88.93;99063.25;109311;1274;22457;-57
2022/01/29 07:36:05;;;;;;;6.20;2.00;;;;;;;-0.34;89.86;99070.45;109330;1273;22570;-57
2022/01/29 07:38:32;;;;;;;3.40;1.40;;;;;;;-0.35;90.57;99072.38;109237;1274;138933;-57
2022/01/29 07:40:58;;;;;;;4.60;1.70;;;;;;;-0.36;90.60;99079.04;109319;1274;22467;-64
2022/01/29 07:43:26;;;;;;;5.20;2.30;;;;;;;-0.36;90.76;99077.34;109275;1274;139867;-65
2022/01/29 07:45:52;;;;;;;2.40;1.50;;;;;;;-0.38;91.15;99076.84;109328;1274;22528;-65
2022/01/29 07:48:19;;;;;;;1.70;1.30;;;;;;;-0.35;90.94;99083.94;109324;1274;22492;-66
2022/01/29 07:50:46;;;;;;;1.40;1.30;;;;;;;-0.36;91.07;99089.38;109252;1274;138035;-65
2022/01/29 07:53:12;;;;;;;2.30;1.60;;;;;;;-0.37;90.70;99088.54;109303;1274;22463;-65
2022/01/29 07:55:39;;;;;;;1.40;1.20;;;;;;;-0.39;90.90;99092.44;109235;1274;139053;-64
2022/01/29 07:58:07;;;;;;;1.80;1.40;;;;;;;-0.39;90.63;99096.80;109325;1273;22488;-65
2022/01/29 08:00:35;;;;;;;2.40;1.30;;;;;;;-0.41;90.52;99100.41;109264;1274;22523;-64
2022/01/29 08:03:02;;;;;;;4.20;2.20;;;;;;;-0.42;90.40;99100.52;109189;1274;137916;-64
2022/01/29 08:05:30;;;;;;;6.70;2.60;;;;;;;-0.41;90.46;99107.48;109295;1274;22515;-65
2022/01/29 08:07:57;;;;;;;6.80;3.20;;;;;;;-0.41;90.33;99103.95;109301;1274;138510;-64
2022/01/29 08:10:33;;;;;;;9.60;3.60;;;;;;;-0.41;89.76;99108.64;109315;1274;22567;-64
2022/01/29 08:12:59;;;;;;;6.60;3.20;;;;;;;-0.41;89.61;99110.08;109181;1274;138487;-64
2022/01/29 08:15:26;;;;;;;5.20;2.70;;;;;;;-0.41;89.24;99116.27;109362;1274;23201;-61
2022/01/29 08:17:52;;;;;;;2.90;2.10;;;;;;;-0.40;89.18;99114.50;109214;1274;22452;-63
2022/01/29 08:20:19;;;;;;;5.40;2.90;;;;;;;-0.37;88.97;99119.71;109173;1274;138616;-63
2022/01/29 08:22:47;;;;;;;3.90;1.90;;;;;;;-0.36;88.43;99120.13;109280;1273;22621;-62
2022/01/29 08:25:14;;;;;;;;;;;;;;;-0.34;88.09;99131.73;109140;1274;138235;-63
2022/01/29 08:27:41;;;;;;;2.60;1.40;;;;;;;-0.33;87.81;99123.73;109266;1273;22465;-63
2022/01/29 08:30:08;;;;;;;4.00;2.10;;;;;;;-0.32;87.60;99126.20;109258;1274;22423;-63
2022/01/29 08:32:41;;;;;;;4.90;2.50;;;;;;;-0.30;87.14;99124.33;109088;1274;138465;-60
2022/01/29 08:35:12;;;;;;;20.80;3.90;;;;;;;-0.28;86.96;99129.88;109327;1274;24005;-61
2022/01/29 08:37:39;;;;;;;4.10;2.70;;;;;;;-0.28;86.41;99134.48;109128;1274;138917;-62
2022/01/29 08:40:11;;;;;;;5.60;2.70;;;;;;;-0.27;86.34;99140.75;109300;1274;22576;-61
2022/01/29 08:42:38;;;;;;;5.10;2.20;;;;;;;-0.25;86.30;99141.91;109284;1273;24144;-61
2022/01/29 08:45:06;;;;;;;4.80;2.60;;;;;;;-0.24;85.57;99148.06;109227;1274;138919;-62
2022/01/29 08:47:38;;;;;;;4.10;2.30;;;;;;;-0.25;85.81;99148.52;109314;1274;24066;-62
2022/01/29 08:50:05;;;;;;;;;;;;;;;-0.25;85.31;99146.65;109192;1274;139902;-62
2022/01/29 08:52:32;;;;;;;4.40;2.20;;;;;;;-0.25;85.31;99151.02;109267;1274;22551;-61
2022/01/29 08:54:59;;;;;;;;;;;;;;;-0.23;85.35;99154.50;109155;1274;138578;-61
2022/01/29 08:57:25;;;;;;;4.50;2.90;;;;;;;-0.21;85.03;99157.23;109257;1274;22479;-62
2022/01/29 08:59:52;;;;;;;3.60;1.70;;;;;;;-0.21;84.51;99160.11;109251;1274;23216;-63
2022/01/29 09:02:18;;;;;;;4.10;1.80;;;;;;;-0.22;84.39;99164.72;109057;1274;138465;-62
2022/01/29 09:04:46;;;;;;;3.60;1.80;;;;;;;-0.22;84.62;99166.56;109276;1274;23216;-61
2022/01/29 09:07:12;;;;;;;4.00;1.90;;;;;;;-0.22;84.66;99171.88;109173;1274;138792;-64
2022/01/29 09:09:43;;;;;;;3.40;1.70;;;;;;;-0.21;84.81;99172.30;109246;1273;22536;-62
2022/01/29 09:12:11;;;;;;;3.20;1.50;;;;;;;-0.21;84.97;99170.08;109321;1273;22487;-62
2022/01/29 09:14:38;;;;;;;3.60;2.10;;;;;;;-0.21;85.37;99174.36;109205;1273;139840;-61
2022/01/29 09:17:05;;;;;;;4.60;2.80;;;;;;;-0.21;85.88;99174.23;109308;1274;22471;-61
2022/01/29 09:19:35;;;;;;;8.40;3.50;;;;;;;-0.20;85.46;99175.73;109200;1273;139315;-62
2022/01/29 09:22:03;;;;;;;6.20;3.00;;;;;;;-0.19;84.93;99176.48;109274;1273;22431;-63
2022/01/29 09:24:30;;;;;;;5.40;2.20;;;;;;;-0.18;84.56;99176.69;109327;1273;22683;-62
2022/01/29 09:26:58;;;;;;;4.40;2.30;;;;;;;-0.16;84.49;99180.41;109208;1273;138731;-62
2022/01/29 09:29:25;;;;;;;4.40;2.20;;;;;;;-0.15;84.18;99181.20;109324;1273;22652;-61
2022/01/29 09:31:52;;;;;;;4.20;2.40;;;;;;;-0.15;84.45;99180.05;109205;1274;138702;-62
2022/01/29 09:34:18;;;;;;;5.60;2.80;;;;;;;-0.12;84.54;99178.48;109336;1273;22507;-61
2022/01/29 09:36:45;;;;;;;6.50;4.00;;;;;;;-0.10;84.31;99180.43;109370;1273;22918;-61
2022/01/29 09:39:11;;;;;;;5.80;2.70;;;;;;;-0.08;83.92;99184.48;109214;1273;139534;-56
2022/01/29 09:41:42;;;;;;;7.70;3.10;;;;;;;-0.06;83.64;99182.80;109315;1273;22610;-57
2022/01/29 09:44:09;;;;;;;6.50;3.30;;;;;;;-0.06;83.19;99188.00;109262;1273;138172;-56
2022/01/29 09:46:35;;;;;;;;;;;;;;;-0.07;83.38;99181.28;109296;1273;22631;-56
2022/01/29 09:49:03;;;;;;;7.60;3.80;;;;;;;-0.08;82.96;99185.67;109184;1273;125548;-56
2022/01/29 09:51:30;;;;;;;8.70;4.40;;;;;;;-0.09;83.62;99188.48;109233;1274;22458;-56
2022/01/29 09:53:57;;;;;;;7.20;3.70;;;;;;;-0.11;83.51;99187.30;109325;1273;22684;-56
2022/01/29 09:56:24;;;;;;;23.60;9.10;;;;;;;-0.07;83.42;99193.67;109155;1274;138240;-56
2022/01/29 09:58:50;;;;;;;23.00;9.90;;;;;;;-0.07;83.14;99195.04;109188;1274;22458;-56
2022/01/29 10:01:17;;;;;;;18.30;7.60;;;;;;;-0.07;83.00;99198.45;109217;1273;139369;-55
2022/01/29 10:04:06;;;;;;;6.00;3.50;;;;;;;-0.08;83.14;99197.26;109250;1273;22443;-56
2022/01/29 10:06:33;;;;;;;12.90;6.10;;;;;;;-0.09;82.77;99196.83;109308;1273;22609;-57
2022/01/29 10:09:01;;;;;;;14.80;6.10;;;;;;;-0.11;82.88;99199.66;109242;1273;139383;-57
2022/01/29 10:11:30;;;;;;;11.40;4.50;;;;;;;-0.11;82.51;99202.58;109340;1273;23490;-56
2022/01/29 10:14:00;;;;;;;5.80;2.30;;;;;;;-0.13;82.58;99209.37;109225;1273;138272;-57
2022/01/29 10:16:28;;;;;;;4.50;2.20;;;;;;;-0.15;82.09;99211.05;109317;1273;23767;-57
2022/01/29 10:19:06;;;;;;;28.60;13.10;;;;;;;-0.15;82.30;99212.42;109208;1273;139047;-57
2022/01/29 10:21:47;;;;;;;8.30;3.10;;;;;;;-0.15;81.98;99215.48;109337;1273;22639;-57
2022/01/29 10:24:17;;;;;;;14.70;6.60;;;;;;;-0.19;81.64;99210.86;109308;1273;22642;-57
2022/01/29 10:26:45;;;;;;;4.40;2.70;;;;;;;-0.20;81.71;99216.01;109219;1273;140980;-57
2022/01/29 10:29:28;;;;;;;7.60;3.80;;;;;;;-0.22;81.24;99220.43;109300;1273;22448;-57
2022/01/29 10:31:59;;;;;;;4.90;2.60;;;;;;;-0.22;81.37;99220.98;109115;1274;138249;-57
2022/01/29 10:34:28;;;;;;;11.00;5.00;;;;;;;-0.22;81.15;99225.75;109235;1273;22483;-56
2022/01/29 10:37:20;;;;;;;3.20;2.00;;;;;;;-0.22;81.02;99229.20;109253;1273;139369;-57
2022/01/29 10:39:54;;;;;;;3.10;1.50;;;;;;;-0.24;80.87;99230.46;109341;1273;22545;-57
2022/01/29 10:42:25;;;;;;;3.10;1.80;;;;;;;-0.24;80.55;99232.61;109297;1273;22571;-56
2022/01/29 10:45:02;;;;;;;8.40;3.80;;;;;;;-0.23;80.63;99230.73;109186;1273;138637;-57
2022/01/29 10:47:50;;;;;;;6.80;3.30;;;;;;;-0.19;80.87;99226.27;109339;1273;22503;-58
2022/01/29 10:50:16;;;;;;;5.30;2.80;;;;;;;-0.16;80.51;99228.23;109135;1273;137968;-57
2022/01/29 10:52:43;;;;;;;3.60;2.30;;;;;;;-0.16;80.46;99231.58;109233;1273;22510;-58
2022/01/29 10:55:09;;;;;;;5.00;2.90;;;;;;;-0.15;80.20;99232.03;109203;1273;140027;-57
2022/01/29 10:57:37;;;;;;;3.40;2.20;;;;;;;-0.16;80.08;99232.85;109206;1274;22560;-58
2022/01/29 11:00:06;;;;;;;3.20;1.70;;;;;;;-0.18;80.05;99235.39;109298;1273;23462;-57
2022/01/29 11:02:33;;;;;;;3.80;2.20;;;;;;;-0.20;79.52;99234.80;109196;1273;138367;-57
2022/01/29 11:05:03;;;;;;;4.50;2.30;;;;;;;-0.22;79.46;99240.75;109350;1273;23885;-56
2022/01/29 11:07:31;;;;;;;4.30;2.50;;;;;;;-0.21;79.43;99243.88;109254;1273;138651;-57
2022/01/29 11:10:00;;;;;;;7.40;3.30;;;;;;;-0.22;79.25;99242.68;109275;1273;23263;-56
2022/01/29 11:12:33;;;;;;;6.30;3.40;;;;;;;-0.22;79.44;99242.02;109332;1273;22663;-56
2022/01/29 11:15:00;;;;;;;4.40;2.30;;;;;;;-0.23;79.06;99242.80;109183;1273;138248;-57
2022/01/29 11:17:28;;;;;;;5.00;2.40;;;;;;;-0.20;79.47;99246.08;109218;1274;23263;-57
2022/01/29 11:19:55;;;;;;;2.30;1.50;;;;;;;-0.19;79.43;99240.52;109190;1273;138260;-56
2022/01/29 11:22:28;;;;;;;;;;;;;;;-0.17;78.95;99240.54;109372;1273;22545;-56
2022/01/29 11:25:06;;;;;;;5.50;2.90;;;;;;;-0.17;78.25;99246.02;109187;1273;124165;-57
2022/01/29 11:27:34;;;;;;;6.10;3.30;;;;;;;-0.19;78.55;99243.23;109180;1274;23235;-57
2022/01/29 11:30:07;;;;;;;6.40;3.50;;;;;;;-0.19;78.83;99242.34;109308;1273;22437;-57
2022/01/29 11:32:44;;;;;;;4.60;2.50;;;;;;;-0.18;78.95;99247.00;109206;1273;138628;-56
2022/01/29 11:35:28;;;;;;;4.30;2.00;;;;;;;-0.15;78.89;99244.67;109300;1273;22467;-56
2022/01/29 11:38:01;;;;;;;2.80;1.80;;;;;;;-0.14;78.67;99252.73;109187;1273;138265;-56
2022/01/29 11:40:59;;;;;;;4.60;2.30;;;;;;;-0.14;78.39;99255.95;109332;1273;23041;-61
2022/01/29 11:43:27;;;;;;;4.40;2.20;;;;;;;-0.15;78.40;99253.66;109191;1273;139921;-62
2022/01/29 11:46:04;;;;;;;7.20;3.90;;;;;;;-0.14;78.69;99262.00;109252;1273;22484;-62
2022/01/29 11:48:37;;;;;;;4.10;2.00;;;;;;;-0.13;78.51;99261.88;109334;1273;22624;-61
2022/01/29 11:51:10;;;;;;;3.20;1.80;;;;;;;-0.13;78.26;99262.38;109207;1273;138901;-63
2022/01/29 11:53:49;;;;;;;3.60;2.10;;;;;;;-0.11;78.25;99265.98;109287;1273;22482;-62
2022/01/29 11:56:38;;;;;;;4.30;2.70;;;;;;;-0.11;77.87;99272.83;109167;1273;138987;-62
2022/01/29 11:59:20;;;;;;;4.10;2.60;;;;;;;-0.11;77.83;99269.85;109344;1273;23294;-62
2022/01/29 12:02:15;;;;;;;4.60;2.80;;;;;;;-0.12;77.90;99267.70;109159;1273;137546;-62
2022/01/29 12:04:49;;;;;;;4.40;2.50;;;;;;;-0.11;78.05;99271.16;108597;1279;22549;-61
2022/01/29 12:07:26;;;;;;;6.50;3.40;;;;;;;-0.11;77.81;99271.58;108535;1281;138613;-62
2022/01/29 12:10:08;;;;;;;;;;;;;;;-0.09;77.89;99275.64;108727;1280;22538;-62
2022/01/29 12:12:38;;;;;;;4.50;2.20;;;;;;;-0.08;77.74;99270.29;108617;1281;23276;-62
2022/01/29 12:15:11;;;;;;;6.30;2.90;;;;;;;-0.07;77.88;99271.08;108538;1281;138289;-62
2022/01/29 12:17:46;;;;;;;5.70;2.80;;;;;;;-0.06;77.38;99268.98;108674;1280;22642;-63
2022/01/29 12:20:19;;;;;;;5.90;2.50;;;;;;;-0.03;77.23;99273.84;108545;1281;138699;-62
2022/01/29 12:22:46;;;;;;;3.80;2.40;;;;;;;-0.02;77.20;99275.00;108633;1280;22523;-62
2022/01/29 12:25:15;;;;;;;4.90;2.60;;;;;;;-0.02;77.06;99278.14;108534;1281;139911;-62
2022/01/29 12:27:43;;;;;;;7.00;2.90;;;;;;;-0.01;77.20;99279.21;108679;1280;22454;-62
2022/01/29 12:30:11;;;;;;;6.30;2.50;;;;;;;0.03;77.13;99279.30;108596;1281;22559;-62
2022/01/29 12:32:37;;;;;;;8.50;3.40;;;;;;;0.06;76.81;99278.34;108546;1281;137466;-62
2022/01/29 12:35:05;;;;;;;8.70;3.30;;;;;;;0.07;76.38;99277.23;108712;1280;23714;-62
2022/01/29 12:37:32;;;;;;;5.50;3.30;;;;;;;0.07;76.40;99284.27;108569;1281;137834;-63
2022/01/29 12:40:07;;;;;;;7.90;3.50;;;;;;;0.08;76.21;99280.45;107041;1281;24254;-56
2022/01/29 12:42:45;;;;;;;6.30;2.70;;;;;;;0.08;76.19;99283.05;109114;1274;22485;-57
2022/01/29 12:45:11;;;;;;;;;;;;;;;0.09;76.07;99278.23;109156;1273;138622;-56
2022/01/29 12:47:38;;;;;;;3.40;2.10;;;;;;;0.08;75.83;99282.09;109275;1273;22488;-57
2022/01/29 12:50:05;;;;;;;5.60;1.90;;;;;;;0.07;75.84;99283.62;109211;1273;138069;-57
2022/01/29 12:52:32;;;;;;;;;;;;;;;0.07;75.88;99279.33;109318;1273;22524;-57
2022/01/29 12:55:04;;;;;;;3.00;1.80;;;;;;;0.07;75.61;99286.09;109206;1273;124776;-56
2022/01/29 12:57:47;;;;;;;5.80;2.60;;;;;;;0.04;75.58;99279.23;109301;1273;23380;-57
2022/01/29 13:00:19;;;;;;;5.40;2.50;;;;;;;0.08;75.73;99278.34;109290;1273;22450;-57
2022/01/29 13:02:46;;;;;;;5.70;2.80;;;;;;;0.10;75.87;99284.30;109170;1271;138214;-57
2022/01/29 13:05:13;;;;;;;5.00;2.00;;;;;;;0.12;75.53;99286.95;109327;1273;22556;-57
2022/01/29 13:07:40;;;;;;;4.30;2.40;;;;;;;0.10;75.32;99286.61;109144;1273;137242;-57
2022/01/29 13:10:31;;;;;;;5.30;2.20;;;;;;;0.09;75.20;99282.27;109288;1273;22492;-57
2022/01/29 13:12:58;;;;;;;4.70;2.30;;;;;;;0.08;75.30;99281.18;109161;1273;139146;-56
2022/01/29 13:15:40;;;;;;;7.80;3.10;;;;;;;0.07;75.27;99280.19;109324;1273;23128;-58
2022/01/29 13:18:08;;;;;;;6.00;2.50;;;;;;;0.07;74.99;99281.60;109264;1273;22449;-58
2022/01/29 13:20:36;;;;;;;7.10;3.30;;;;;;;0.08;75.08;99272.50;109116;1273;137871;-57
2022/01/29 13:23:03;;;;;;;4.90;2.90;;;;;;;0.08;75.26;99274.52;109331;1273;22465;-57
2022/01/29 13:25:30;;;;;;;8.90;3.70;;;;;;;0.09;74.98;99282.11;109152;1273;138181;-57
2022/01/29 13:28:16;;;;;;;5.40;2.90;;;;;;;0.09;75.15;99272.14;109271;1273;22473;-57
2022/01/29 13:30:44;;;;;;;3.40;2.30;;;;;;;0.12;74.87;99279.41;109280;1273;23564;-58
2022/01/29 13:33:18;;;;;;;4.60;2.40;;;;;;;0.10;74.57;99277.67;109152;1273;137713;-58
2022/01/29 13:35:45;;;;;;;5.90;2.40;;;;;;;0.10;74.11;99275.36;109261;1273;22478;-58
2022/01/29 13:38:15;;;;;;;4.00;2.30;;;;;;;0.08;73.57;99276.13;109177;1273;137220;-58
2022/01/29 13:40:44;;;;;;;5.50;2.90;;;;;;;0.05;73.48;99275.69;106238;1274;23058;-58
2022/01/29 13:43:12;;;;;;;5.50;3.20;;;;;;;0.02;73.82;99273.69;104691;1274;137165;-57
2022/01/29 13:45:49;;;;;;;5.10;2.80;;;;;;;0.02;73.68;99280.27;104637;1274;23709;-56
2022/01/29 13:48:16;;;;;;;7.00;3.20;;;;;;;0.00;73.31;99274.84;104702;1274;22744;-55
2022/01/29 13:50:44;;;;;;;6.40;2.50;;;;;;;-0.03;73.27;99277.42;104596;1274;138493;-56
2022/01/29 13:53:12;;;;;;;9.30;3.00;;;;;;;-0.06;73.05;99277.40;109200;1273;23217;-56
2022/01/29 13:56:03;;;;;;;7.40;3.30;;;;;;;-0.09;73.00;99275.51;109193;1273;138416;-56
2022/01/29 13:58:53;;;;;;;4.20;2.30;;;;;;;-0.13;72.63;99280.13;109183;1274;22383;-56
2022/01/29 14:03:47;;;;;;;8.20;3.60;;;;;;;-0.18;72.84;99281.50;101560;1309;564054;-58
2022/01/29 14:06:39;;;;;;;6.50;3.20;;;;;;;-0.21;73.00;99282.69;108915;1280;23370;-56
2022/01/29 14:09:12;;;;;;;8.40;3.40;;;;;;;-0.22;72.82;99283.83;108817;1280;136459;-56
2022/01/29 14:11:59;;;;;;;3.20;1.90;;;;;;;-0.25;72.57;99289.31;108889;1279;22463;-56
2022/01/29 14:14:49;;;;;;;6.70;2.30;;;;;;;-0.28;72.03;99291.02;108781;1280;138452;-56